sensor_id;sensor_type;location;lat;lon;timestamp;P1;durP1;ratioP1;P2;durP2;ratioP2
56116;SDS011;41989;45.356;20.392;2023-05-21T00:01:13;11.93;;;7.28;;
56116;SDS011;41989;45.356;20.392;2023-05-21T00:03:43;8.95;;;7.07;;
56116;SDS011;41989;45.356;20.392;2023-05-21T00:06:13;9.20;;;7.30;;
56116;SDS011;41989;45.356;20.392;2023-05-21T00:08:40;11.02;;;8.50;;
56116;SDS011;41989;45.356;20.392;2023-05-21T00:11:06;15.65;;;8.05;;
56116;SDS011;41989;45.356;20.392;2023-05-21T00:13:32;12.55;;;8.30;;
56116;SDS011;41989;45.356;20.392;2023-05-21T00:15:58;15.05;;;8.65;;
56116;SDS011;41989;45.356;20.392;2023-05-21T00:18:25;12.38;;;8.80;;
56116;SDS011;41989;45.356;20.392;2023-05-21T00:20:51;14.07;;;9.18;;
56116;SDS011;41989;45.356;20.392;2023-05-21T00:23:18;12.48;;;9.57;;
56116;SDS011;41989;45.356;20.392;2023-05-21T00:25:45;13.30;;;9.05;;
56116;SDS011;41989;45.356;20.392;2023-05-21T00:28:11;12.77;;;9.25;;
56116;SDS011;41989;45.356;20.392;2023-05-21T00:30:38;14.05;;;10.25;;
56116;SDS011;41989;45.356;20.392;2023-05-21T00:33:04;16.95;;;9.48;;
56116;SDS011;41989;45.356;20.392;2023-05-21T00:35:30;15.60;;;10.25;;
56116;SDS011;41989;45.356;20.392;2023-05-21T00:37:56;14.07;;;9.95;;
56116;SDS011;41989;45.356;20.392;2023-05-21T00:40:23;15.90;;;10.20;;
56116;SDS011;41989;45.356;20.392;2023-05-21T00:42:49;13.40;;;10.25;;
56116;SDS011;41989;45.356;20.392;2023-05-21T00:45:15;16.95;;;11.05;;
56116;SDS011;41989;45.356;20.392;2023-05-21T00:47:41;19.63;;;11.30;;
56116;SDS011;41989;45.356;20.392;2023-05-21T00:50:08;26.38;;;12.00;;
56116;SDS011;41989;45.356;20.392;2023-05-21T00:52:34;18.23;;;11.68;;
56116;SDS011;41989;45.356;20.392;2023-05-21T00:55:06;18.13;;;11.82;;
56116;SDS011;41989;45.356;20.392;2023-05-21T00:57:32;21.63;;;12.35;;
56116;SDS011;41989;45.356;20.392;2023-05-21T00:59:58;22.08;;;13.57;;
56116;SDS011;41989;45.356;20.392;2023-05-21T01:02:24;21.70;;;12.65;;
56116;SDS011;41989;45.356;20.392;2023-05-21T01:04:53;21.80;;;12.27;;
56116;SDS011;41989;45.356;20.392;2023-05-21T01:07:20;19.02;;;11.00;;
56116;SDS011;41989;45.356;20.392;2023-05-21T01:09:46;23.38;;;11.00;;
56116;SDS011;41989;45.356;20.392;2023-05-21T01:12:12;21.45;;;12.73;;
56116;SDS011;41989;45.356;20.392;2023-05-21T01:14:39;29.52;;;12.55;;
56116;SDS011;41989;45.356;20.392;2023-05-21T01:17:05;19.80;;;11.18;;
56116;SDS011;41989;45.356;20.392;2023-05-21T01:19:35;19.15;;;9.88;;
56116;SDS011;41989;45.356;20.392;2023-05-21T01:22:05;17.88;;;10.73;;
56116;SDS011;41989;45.356;20.392;2023-05-21T01:26:59;35.40;;;19.45;;
56116;SDS011;41989;45.356;20.392;2023-05-21T01:29:25;32.40;;;22.60;;
56116;SDS011;41989;45.356;20.392;2023-05-21T01:35:21;35.40;;;16.17;;
56116;SDS011;41989;45.356;20.392;2023-05-21T01:37:34;31.52;;;19.63;;
56116;SDS011;41989;45.356;20.392;2023-05-21T01:40:04;26.15;;;19.55;;
56116;SDS011;41989;45.356;20.392;2023-05-21T01:42:33;25.25;;;20.70;;
56116;SDS011;41989;45.356;20.392;2023-05-21T01:45:00;31.70;;;21.83;;
56116;SDS011;41989;45.356;20.392;2023-05-21T01:47:30;26.77;;;17.52;;
56116;SDS011;41989;45.356;20.392;2023-05-21T01:49:56;30.50;;;18.45;;
56116;SDS011;41989;45.356;20.392;2023-05-21T01:52:26;21.17;;;16.38;;
56116;SDS011;41989;45.356;20.392;2023-05-21T01:54:52;17.30;;;12.60;;
56116;SDS011;41989;45.356;20.392;2023-05-21T01:57:18;13.15;;;10.27;;
56116;SDS011;41989;45.356;20.392;2023-05-21T01:59:45;13.88;;;9.90;;
56116;SDS011;41989;45.356;20.392;2023-05-21T02:02:11;15.73;;;10.50;;
56116;SDS011;41989;45.356;20.392;2023-05-21T02:04:38;15.10;;;9.93;;
56116;SDS011;41989;45.356;20.392;2023-05-21T02:07:08;15.50;;;10.63;;
56116;SDS011;41989;45.356;20.392;2023-05-21T02:09:34;15.63;;;11.02;;
56116;SDS011;41989;45.356;20.392;2023-05-21T02:12:05;18.42;;;11.02;;
56116;SDS011;41989;45.356;20.392;2023-05-21T02:14:31;18.20;;;9.55;;
56116;SDS011;41989;45.356;20.392;2023-05-21T02:16:58;17.13;;;9.32;;
56116;SDS011;41989;45.356;20.392;2023-05-21T02:19:25;16.35;;;9.43;;
56116;SDS011;41989;45.356;20.392;2023-05-21T02:21:51;14.05;;;9.43;;
56116;SDS011;41989;45.356;20.392;2023-05-21T02:24:17;14.82;;;9.50;;
56116;SDS011;41989;45.356;20.392;2023-05-21T02:26:43;12.18;;;9.40;;
56116;SDS011;41989;45.356;20.392;2023-05-21T02:29:09;18.13;;;9.88;;
56116;SDS011;41989;45.356;20.392;2023-05-21T02:31:36;25.65;;;10.23;;
56116;SDS011;41989;45.356;20.392;2023-05-21T02:34:02;17.35;;;9.68;;
56116;SDS011;41989;45.356;20.392;2023-05-21T02:36:28;14.02;;;9.88;;
56116;SDS011;41989;45.356;20.392;2023-05-21T02:38:57;14.60;;;10.00;;
56116;SDS011;41989;45.356;20.392;2023-05-21T02:41:23;14.40;;;9.93;;
56116;SDS011;41989;45.356;20.392;2023-05-21T02:43:50;14.95;;;10.07;;
56116;SDS011;41989;45.356;20.392;2023-05-21T02:46:16;15.20;;;9.80;;
56116;SDS011;41989;45.356;20.392;2023-05-21T02:48:43;22.45;;;13.68;;
56116;SDS011;41989;45.356;20.392;2023-05-21T02:51:09;30.33;;;16.70;;
56116;SDS011;41989;45.356;20.392;2023-05-21T02:53:35;26.85;;;13.57;;
56116;SDS011;41989;45.356;20.392;2023-05-21T02:56:01;24.50;;;11.05;;
56116;SDS011;41989;45.356;20.392;2023-05-21T02:58:27;14.50;;;9.57;;
56116;SDS011;41989;45.356;20.392;2023-05-21T03:00:53;12.63;;;9.88;;
56116;SDS011;41989;45.356;20.392;2023-05-21T03:03:19;14.43;;;9.95;;
56116;SDS011;41989;45.356;20.392;2023-05-21T03:05:45;12.93;;;9.85;;
56116;SDS011;41989;45.356;20.392;2023-05-21T03:08:12;15.00;;;9.65;;
56116;SDS011;41989;45.356;20.392;2023-05-21T03:10:38;17.13;;;10.18;;
56116;SDS011;41989;45.356;20.392;2023-05-21T03:13:04;14.65;;;9.45;;
56116;SDS011;41989;45.356;20.392;2023-05-21T03:15:30;19.13;;;10.45;;
56116;SDS011;41989;45.356;20.392;2023-05-21T03:17:57;16.55;;;10.90;;
56116;SDS011;41989;45.356;20.392;2023-05-21T03:20:24;21.60;;;13.13;;
56116;SDS011;41989;45.356;20.392;2023-05-21T03:22:51;25.90;;;16.65;;
56116;SDS011;41989;45.356;20.392;2023-05-21T03:25:19;29.98;;;20.75;;
56116;SDS011;41989;45.356;20.392;2023-05-21T03:27:46;33.10;;;22.38;;
56116;SDS011;41989;45.356;20.392;2023-05-21T03:30:12;30.55;;;23.77;;
56116;SDS011;41989;45.356;20.392;2023-05-21T03:32:38;42.05;;;20.05;;
56116;SDS011;41989;45.356;20.392;2023-05-21T03:35:05;26.80;;;14.85;;
56116;SDS011;41989;45.356;20.392;2023-05-21T03:37:31;19.60;;;11.63;;
56116;SDS011;41989;45.356;20.392;2023-05-21T03:40:00;18.90;;;10.25;;
56116;SDS011;41989;45.356;20.392;2023-05-21T03:42:26;19.10;;;9.82;;
56116;SDS011;41989;45.356;20.392;2023-05-21T03:44:52;16.25;;;10.88;;
56116;SDS011;41989;45.356;20.392;2023-05-21T03:47:18;22.90;;;15.98;;
56116;SDS011;41989;45.356;20.392;2023-05-21T03:49:44;35.95;;;20.40;;
56116;SDS011;41989;45.356;20.392;2023-05-21T03:52:10;32.47;;;15.80;;
56116;SDS011;41989;45.356;20.392;2023-05-21T03:54:36;15.23;;;11.25;;
56116;SDS011;41989;45.356;20.392;2023-05-21T03:57:06;16.73;;;10.00;;
56116;SDS011;41989;45.356;20.392;2023-05-21T03:59:32;15.60;;;9.35;;
56116;SDS011;41989;45.356;20.392;2023-05-21T04:01:58;13.45;;;9.60;;
56116;SDS011;41989;45.356;20.392;2023-05-21T04:04:24;13.02;;;9.40;;
56116;SDS011;41989;45.356;20.392;2023-05-21T04:06:50;12.32;;;9.77;;
56116;SDS011;41989;45.356;20.392;2023-05-21T04:09:18;13.43;;;9.30;;
56116;SDS011;41989;45.356;20.392;2023-05-21T04:11:44;13.30;;;9.45;;
56116;SDS011;41989;45.356;20.392;2023-05-21T04:14:11;12.82;;;9.43;;
56116;SDS011;41989;45.356;20.392;2023-05-21T04:16:37;16.52;;;9.48;;
56116;SDS011;41989;45.356;20.392;2023-05-21T04:19:04;10.35;;;8.55;;
56116;SDS011;41989;45.356;20.392;2023-05-21T04:21:31;13.02;;;9.70;;
56116;SDS011;41989;45.356;20.392;2023-05-21T04:23:57;15.23;;;9.68;;
56116;SDS011;41989;45.356;20.392;2023-05-21T04:26:25;12.57;;;8.98;;
56116;SDS011;41989;45.356;20.392;2023-05-21T04:28:52;12.85;;;9.40;;
56116;SDS011;41989;45.356;20.392;2023-05-21T04:31:21;14.60;;;9.55;;
56116;SDS011;41989;45.356;20.392;2023-05-21T04:33:47;15.32;;;9.60;;
56116;SDS011;41989;45.356;20.392;2023-05-21T04:36:14;15.23;;;8.90;;
56116;SDS011;41989;45.356;20.392;2023-05-21T04:38:41;15.25;;;9.02;;
56116;SDS011;41989;45.356;20.392;2023-05-21T04:41:07;12.73;;;8.57;;
56116;SDS011;41989;45.356;20.392;2023-05-21T04:43:36;16.45;;;9.38;;
56116;SDS011;41989;45.356;20.392;2023-05-21T04:46:02;15.02;;;9.82;;
56116;SDS011;41989;45.356;20.392;2023-05-21T04:48:28;19.80;;;9.48;;
56116;SDS011;41989;45.356;20.392;2023-05-21T04:50:54;19.15;;;9.93;;
56116;SDS011;41989;45.356;20.392;2023-05-21T04:53:21;15.43;;;9.38;;
56116;SDS011;41989;45.356;20.392;2023-05-21T04:55:47;13.82;;;8.63;;
56116;SDS011;41989;45.356;20.392;2023-05-21T04:58:13;16.33;;;9.10;;
56116;SDS011;41989;45.356;20.392;2023-05-21T05:00:42;14.82;;;8.57;;
56116;SDS011;41989;45.356;20.392;2023-05-21T05:03:10;13.65;;;8.30;;
56116;SDS011;41989;45.356;20.392;2023-05-21T05:05:36;18.45;;;9.90;;
56116;SDS011;41989;45.356;20.392;2023-05-21T05:08:02;20.67;;;11.73;;
56116;SDS011;41989;45.356;20.392;2023-05-21T05:10:28;27.35;;;13.15;;
56116;SDS011;41989;45.356;20.392;2023-05-21T05:12:55;19.60;;;10.40;;
56116;SDS011;41989;45.356;20.392;2023-05-21T05:15:21;20.50;;;9.13;;
56116;SDS011;41989;45.356;20.392;2023-05-21T05:17:50;22.17;;;9.43;;
56116;SDS011;41989;45.356;20.392;2023-05-21T05:20:16;13.10;;;9.13;;
56116;SDS011;41989;45.356;20.392;2023-05-21T05:22:42;17.65;;;8.57;;
56116;SDS011;41989;45.356;20.392;2023-05-21T05:25:09;17.60;;;8.68;;
56116;SDS011;41989;45.356;20.392;2023-05-21T05:27:35;24.67;;;9.43;;
56116;SDS011;41989;45.356;20.392;2023-05-21T05:30:01;21.15;;;9.77;;
56116;SDS011;41989;45.356;20.392;2023-05-21T05:32:27;25.98;;;8.77;;
56116;SDS011;41989;45.356;20.392;2023-05-21T05:34:53;15.32;;;7.85;;
56116;SDS011;41989;45.356;20.392;2023-05-21T05:37:19;13.35;;;8.30;;
56116;SDS011;41989;45.356;20.392;2023-05-21T05:39:45;13.45;;;8.60;;
56116;SDS011;41989;45.356;20.392;2023-05-21T05:42:11;13.18;;;7.30;;
56116;SDS011;41989;45.356;20.392;2023-05-21T05:44:40;21.20;;;8.45;;
56116;SDS011;41989;45.356;20.392;2023-05-21T05:47:07;23.55;;;8.65;;
56116;SDS011;41989;45.356;20.392;2023-05-21T05:49:35;15.18;;;7.53;;
56116;SDS011;41989;45.356;20.392;2023-05-21T05:52:01;11.48;;;7.38;;
56116;SDS011;41989;45.356;20.392;2023-05-21T05:54:27;12.43;;;7.88;;
56116;SDS011;41989;45.356;20.392;2023-05-21T05:56:53;18.88;;;7.70;;
56116;SDS011;41989;45.356;20.392;2023-05-21T05:59:19;18.77;;;8.50;;
56116;SDS011;41989;45.356;20.392;2023-05-21T06:01:45;18.60;;;8.27;;
56116;SDS011;41989;45.356;20.392;2023-05-21T06:04:11;21.40;;;8.40;;
56116;SDS011;41989;45.356;20.392;2023-05-21T06:06:37;16.90;;;8.05;;
56116;SDS011;41989;45.356;20.392;2023-05-21T06:09:03;25.60;;;9.55;;
56116;SDS011;41989;45.356;20.392;2023-05-21T06:11:30;18.27;;;9.25;;
56116;SDS011;41989;45.356;20.392;2023-05-21T06:13:56;13.70;;;7.43;;
56116;SDS011;41989;45.356;20.392;2023-05-21T06:16:24;20.05;;;7.78;;
56116;SDS011;41989;45.356;20.392;2023-05-21T06:18:50;22.40;;;8.15;;
56116;SDS011;41989;45.356;20.392;2023-05-21T06:21:19;12.77;;;8.52;;
56116;SDS011;41989;45.356;20.392;2023-05-21T06:23:45;12.75;;;8.15;;
56116;SDS011;41989;45.356;20.392;2023-05-21T06:26:11;10.52;;;8.05;;
56116;SDS011;41989;45.356;20.392;2023-05-21T06:28:37;14.73;;;8.02;;
56116;SDS011;41989;45.356;20.392;2023-05-21T06:31:03;12.60;;;7.97;;
56116;SDS011;41989;45.356;20.392;2023-05-21T06:33:29;11.20;;;7.68;;
56116;SDS011;41989;45.356;20.392;2023-05-21T06:35:57;14.90;;;7.50;;
56116;SDS011;41989;45.356;20.392;2023-05-21T06:38:26;12.13;;;8.13;;
56116;SDS011;41989;45.356;20.392;2023-05-21T06:40:52;11.15;;;8.30;;
56116;SDS011;41989;45.356;20.392;2023-05-21T06:43:18;12.07;;;7.88;;
56116;SDS011;41989;45.356;20.392;2023-05-21T06:45:44;13.05;;;8.10;;
56116;SDS011;41989;45.356;20.392;2023-05-21T06:48:13;13.98;;;9.23;;
56116;SDS011;41989;45.356;20.392;2023-05-21T06:50:40;13.77;;;8.68;;
56116;SDS011;41989;45.356;20.392;2023-05-21T06:53:07;11.93;;;8.05;;
56116;SDS011;41989;45.356;20.392;2023-05-21T06:55:33;9.35;;;8.35;;
56116;SDS011;41989;45.356;20.392;2023-05-21T06:57:59;17.52;;;9.77;;
56116;SDS011;41989;45.356;20.392;2023-05-21T07:00:25;15.00;;;9.13;;
56116;SDS011;41989;45.356;20.392;2023-05-21T07:02:51;13.25;;;9.30;;
56116;SDS011;41989;45.356;20.392;2023-05-21T07:05:18;13.18;;;8.82;;
56116;SDS011;41989;45.356;20.392;2023-05-21T07:07:44;15.25;;;8.40;;
56116;SDS011;41989;45.356;20.392;2023-05-21T07:10:10;13.00;;;8.15;;
56116;SDS011;41989;45.356;20.392;2023-05-21T07:12:36;10.50;;;8.65;;
56116;SDS011;41989;45.356;20.392;2023-05-21T07:15:04;14.75;;;8.95;;
56116;SDS011;41989;45.356;20.392;2023-05-21T07:17:30;12.98;;;9.30;;
56116;SDS011;41989;45.356;20.392;2023-05-21T07:19:57;19.92;;;9.63;;
56116;SDS011;41989;45.356;20.392;2023-05-21T07:22:23;17.40;;;8.80;;
56116;SDS011;41989;45.356;20.392;2023-05-21T07:24:49;13.18;;;8.15;;
56116;SDS011;41989;45.356;20.392;2023-05-21T07:27:15;15.50;;;8.30;;
56116;SDS011;41989;45.356;20.392;2023-05-21T07:29:41;13.25;;;8.85;;
56116;SDS011;41989;45.356;20.392;2023-05-21T07:32:07;18.00;;;8.25;;
56116;SDS011;41989;45.356;20.392;2023-05-21T07:34:33;16.55;;;8.32;;
56116;SDS011;41989;45.356;20.392;2023-05-21T07:36:59;13.85;;;7.95;;
56116;SDS011;41989;45.356;20.392;2023-05-21T07:39:25;23.42;;;8.27;;
56116;SDS011;41989;45.356;20.392;2023-05-21T07:41:52;18.30;;;8.18;;
56116;SDS011;41989;45.356;20.392;2023-05-21T07:44:18;14.13;;;8.00;;
56116;SDS011;41989;45.356;20.392;2023-05-21T07:46:44;11.93;;;7.35;;
56116;SDS011;41989;45.356;20.392;2023-05-21T07:49:10;13.85;;;8.00;;
56116;SDS011;41989;45.356;20.392;2023-05-21T07:51:40;10.55;;;7.93;;
56116;SDS011;41989;45.356;20.392;2023-05-21T07:54:06;11.20;;;6.22;;
56116;SDS011;41989;45.356;20.392;2023-05-21T07:56:32;8.38;;;6.18;;
56116;SDS011;41989;45.356;20.392;2023-05-21T07:58:59;13.90;;;6.63;;
56116;SDS011;41989;45.356;20.392;2023-05-21T08:01:26;11.82;;;6.15;;
56116;SDS011;41989;45.356;20.392;2023-05-21T08:03:54;11.05;;;5.97;;
56116;SDS011;41989;45.356;20.392;2023-05-21T08:06:21;9.73;;;6.07;;
56116;SDS011;41989;45.356;20.392;2023-05-21T08:08:50;11.65;;;5.65;;
56116;SDS011;41989;45.356;20.392;2023-05-21T08:11:18;9.38;;;5.85;;
56116;SDS011;41989;45.356;20.392;2023-05-21T08:13:45;6.90;;;5.80;;
56116;SDS011;41989;45.356;20.392;2023-05-21T08:16:11;9.10;;;5.15;;
56116;SDS011;41989;45.356;20.392;2023-05-21T08:18:37;10.68;;;6.15;;
56116;SDS011;41989;45.356;20.392;2023-05-21T08:21:05;9.55;;;5.55;;
56116;SDS011;41989;45.356;20.392;2023-05-21T08:23:31;13.95;;;6.07;;
56116;SDS011;41989;45.356;20.392;2023-05-21T08:25:57;7.70;;;5.95;;
56116;SDS011;41989;45.356;20.392;2023-05-21T08:28:23;9.55;;;6.15;;
56116;SDS011;41989;45.356;20.392;2023-05-21T08:30:51;7.72;;;5.10;;
56116;SDS011;41989;45.356;20.392;2023-05-21T08:33:17;7.53;;;5.10;;
56116;SDS011;41989;45.356;20.392;2023-05-21T08:35:43;10.27;;;5.38;;
56116;SDS011;41989;45.356;20.392;2023-05-21T08:38:11;8.57;;;5.78;;
56116;SDS011;41989;45.356;20.392;2023-05-21T08:43:07;7.85;;;4.70;;
56116;SDS011;41989;45.356;20.392;2023-05-21T08:45:37;8.68;;;4.95;;
56116;SDS011;41989;45.356;20.392;2023-05-21T08:48:07;10.82;;;6.22;;
56116;SDS011;41989;45.356;20.392;2023-05-21T08:50:37;10.35;;;4.65;;
56116;SDS011;41989;45.356;20.392;2023-05-21T08:53:03;19.05;;;6.55;;
56116;SDS011;41989;45.356;20.392;2023-05-21T08:55:39;10.05;;;6.15;;
56116;SDS011;41989;45.356;20.392;2023-05-21T08:58:06;9.98;;;6.10;;
56116;SDS011;41989;45.356;20.392;2023-05-21T09:00:33;8.35;;;5.53;;
56116;SDS011;41989;45.356;20.392;2023-05-21T09:02:59;11.82;;;5.57;;
56116;SDS011;41989;45.356;20.392;2023-05-21T09:05:26;12.55;;;6.10;;
56116;SDS011;41989;45.356;20.392;2023-05-21T09:07:58;8.52;;;5.57;;
56116;SDS011;41989;45.356;20.392;2023-05-21T09:10:28;10.07;;;5.30;;
56116;SDS011;41989;45.356;20.392;2023-05-21T09:12:56;10.38;;;5.22;;
56116;SDS011;41989;45.356;20.392;2023-05-21T09:15:22;10.80;;;6.30;;
56116;SDS011;41989;45.356;20.392;2023-05-21T09:17:49;15.68;;;7.43;;
56116;SDS011;41989;45.356;20.392;2023-05-21T09:20:15;14.20;;;6.72;;
56116;SDS011;41989;45.356;20.392;2023-05-21T09:22:45;8.80;;;5.40;;
56116;SDS011;41989;45.356;20.392;2023-05-21T09:25:15;17.90;;;6.75;;
56116;SDS011;41989;45.356;20.392;2023-05-21T09:27:41;12.57;;;6.38;;
56116;SDS011;41989;45.356;20.392;2023-05-21T09:30:08;10.95;;;6.07;;
56116;SDS011;41989;45.356;20.392;2023-05-21T09:35:07;8.52;;;5.80;;
56116;SDS011;41989;45.356;20.392;2023-05-21T09:37:37;9.70;;;5.25;;
56116;SDS011;41989;45.356;20.392;2023-05-21T09:42:29;7.80;;;5.32;;
56116;SDS011;41989;45.356;20.392;2023-05-21T09:44:55;10.75;;;5.60;;
56116;SDS011;41989;45.356;20.392;2023-05-21T09:47:24;12.02;;;5.57;;
56116;SDS011;41989;45.356;20.392;2023-05-21T09:49:51;8.23;;;5.43;;
56116;SDS011;41989;45.356;20.392;2023-05-21T09:52:23;10.18;;;5.72;;
56116;SDS011;41989;45.356;20.392;2023-05-21T09:54:50;9.93;;;5.35;;
56116;SDS011;41989;45.356;20.392;2023-05-21T09:57:22;8.82;;;5.38;;
56116;SDS011;41989;45.356;20.392;2023-05-21T09:59:49;9.23;;;5.20;;
56116;SDS011;41989;45.356;20.392;2023-05-21T10:02:16;11.65;;;5.70;;
56116;SDS011;41989;45.356;20.392;2023-05-21T10:04:46;10.30;;;4.85;;
56116;SDS011;41989;45.356;20.392;2023-05-21T10:07:13;10.68;;;5.22;;
56116;SDS011;41989;45.356;20.392;2023-05-21T10:09:41;10.77;;;5.15;;
56116;SDS011;41989;45.356;20.392;2023-05-21T10:12:08;9.63;;;5.30;;
56116;SDS011;41989;45.356;20.392;2023-05-21T10:14:35;11.98;;;5.57;;
56116;SDS011;41989;45.356;20.392;2023-05-21T10:17:03;12.63;;;5.45;;
56116;SDS011;41989;45.356;20.392;2023-05-21T10:19:30;9.43;;;5.38;;
56116;SDS011;41989;45.356;20.392;2023-05-21T10:22:02;8.57;;;4.88;;
56116;SDS011;41989;45.356;20.392;2023-05-21T10:24:28;10.63;;;4.72;;
56116;SDS011;41989;45.356;20.392;2023-05-21T10:26:55;8.88;;;4.75;;
56116;SDS011;41989;45.356;20.392;2023-05-21T10:29:22;14.70;;;5.18;;
56116;SDS011;41989;45.356;20.392;2023-05-21T10:31:48;9.65;;;5.10;;
56116;SDS011;41989;45.356;20.392;2023-05-21T10:34:18;8.90;;;4.85;;
56116;SDS011;41989;45.356;20.392;2023-05-21T10:36:45;10.10;;;5.55;;
56116;SDS011;41989;45.356;20.392;2023-05-21T10:39:13;9.82;;;4.80;;
56116;SDS011;41989;45.356;20.392;2023-05-21T10:41:45;10.02;;;5.63;;
56116;SDS011;41989;45.356;20.392;2023-05-21T10:44:24;13.27;;;6.60;;
56116;SDS011;41989;45.356;20.392;2023-05-21T10:47:16;12.52;;;6.07;;
56116;SDS011;41989;45.356;20.392;2023-05-21T11:00:27;10.45;;;4.85;;
56116;SDS011;41989;45.356;20.392;2023-05-21T11:02:55;6.78;;;4.78;;
56116;SDS011;41989;45.356;20.392;2023-05-21T11:05:37;9.15;;;4.13;;
56116;SDS011;41989;45.356;20.392;2023-05-21T11:08:05;11.43;;;6.10;;
56116;SDS011;41989;45.356;20.392;2023-05-21T11:10:43;7.57;;;5.57;;
56116;SDS011;41989;45.356;20.392;2023-05-21T11:13:16;16.60;;;11.68;;
56116;SDS011;41989;45.356;20.392;2023-05-21T11:18:12;23.13;;;16.88;;
56116;SDS011;41989;45.356;20.392;2023-05-21T11:20:38;19.65;;;13.73;;
56116;SDS011;41989;45.356;20.392;2023-05-21T11:23:10;13.80;;;8.38;;
56116;SDS011;41989;45.356;20.392;2023-05-21T11:25:38;11.32;;;7.90;;
56116;SDS011;41989;45.356;20.392;2023-05-21T11:30:33;27.17;;;18.35;;
56116;SDS011;41989;45.356;20.392;2023-05-21T11:38:10;8.65;;;5.03;;
56116;SDS011;41989;45.356;20.392;2023-05-21T11:40:36;6.95;;;4.32;;
56116;SDS011;41989;45.356;20.392;2023-05-21T11:43:02;10.02;;;5.68;;
56116;SDS011;41989;45.356;20.392;2023-05-21T11:45:29;8.65;;;4.75;;
56116;SDS011;41989;45.356;20.392;2023-05-21T11:47:55;9.32;;;4.95;;
56116;SDS011;41989;45.356;20.392;2023-05-21T11:50:22;9.25;;;4.85;;
56116;SDS011;41989;45.356;20.392;2023-05-21T11:52:49;8.32;;;3.70;;
56116;SDS011;41989;45.356;20.392;2023-05-21T11:55:19;6.85;;;3.20;;
56116;SDS011;41989;45.356;20.392;2023-05-21T11:57:46;4.93;;;3.40;;
56116;SDS011;41989;45.356;20.392;2023-05-21T12:00:13;6.65;;;3.95;;
56116;SDS011;41989;45.356;20.392;2023-05-21T12:02:44;7.47;;;4.30;;
56116;SDS011;41989;45.356;20.392;2023-05-21T12:05:10;7.40;;;4.57;;
56116;SDS011;41989;45.356;20.392;2023-05-21T12:07:39;7.80;;;4.70;;
56116;SDS011;41989;45.356;20.392;2023-05-21T12:10:05;7.60;;;4.50;;
56116;SDS011;41989;45.356;20.392;2023-05-21T12:12:31;10.30;;;4.75;;
56116;SDS011;41989;45.356;20.392;2023-05-21T12:14:57;8.02;;;3.90;;
56116;SDS011;41989;45.356;20.392;2023-05-21T12:17:25;9.48;;;4.57;;
56116;SDS011;41989;45.356;20.392;2023-05-21T12:19:55;19.17;;;7.10;;
56116;SDS011;41989;45.356;20.392;2023-05-21T12:22:21;19.25;;;9.40;;
56116;SDS011;41989;45.356;20.392;2023-05-21T12:24:48;7.90;;;4.10;;
56116;SDS011;41989;45.356;20.392;2023-05-21T12:27:18;12.93;;;5.00;;
56116;SDS011;41989;45.356;20.392;2023-05-21T12:29:47;7.75;;;4.68;;
56116;SDS011;41989;45.356;20.392;2023-05-21T12:32:14;8.05;;;4.95;;
56116;SDS011;41989;45.356;20.392;2023-05-21T12:34:41;7.97;;;5.03;;
56116;SDS011;41989;45.356;20.392;2023-05-21T12:37:11;14.07;;;4.63;;
56116;SDS011;41989;45.356;20.392;2023-05-21T12:39:38;12.25;;;4.85;;
56116;SDS011;41989;45.356;20.392;2023-05-21T12:42:05;8.70;;;5.38;;
56116;SDS011;41989;45.356;20.392;2023-05-21T12:44:37;6.20;;;3.33;;
56116;SDS011;41989;45.356;20.392;2023-05-21T12:47:04;9.90;;;3.78;;
56116;SDS011;41989;45.356;20.392;2023-05-21T12:49:34;6.15;;;3.33;;
56116;SDS011;41989;45.356;20.392;2023-05-21T12:52:02;5.30;;;3.50;;
56116;SDS011;41989;45.356;20.392;2023-05-21T12:54:31;7.72;;;3.70;;
56116;SDS011;41989;45.356;20.392;2023-05-21T12:57:04;4.45;;;3.03;;
56116;SDS011;41989;45.356;20.392;2023-05-21T12:59:38;4.75;;;2.83;;
56116;SDS011;41989;45.356;20.392;2023-05-21T13:02:04;9.55;;;3.65;;
56116;SDS011;41989;45.356;20.392;2023-05-21T13:04:30;6.60;;;3.42;;
56116;SDS011;41989;45.356;20.392;2023-05-21T13:07:01;6.47;;;2.75;;
56116;SDS011;41989;45.356;20.392;2023-05-21T13:09:27;9.50;;;3.05;;
56116;SDS011;41989;45.356;20.392;2023-05-21T13:11:53;5.78;;;2.80;;
56116;SDS011;41989;45.356;20.392;2023-05-21T13:14:21;4.65;;;2.60;;
56116;SDS011;41989;45.356;20.392;2023-05-21T13:16:47;8.55;;;3.00;;
56116;SDS011;41989;45.356;20.392;2023-05-21T13:19:14;5.28;;;2.72;;
56116;SDS011;41989;45.356;20.392;2023-05-21T13:21:40;6.55;;;3.15;;
56116;SDS011;41989;45.356;20.392;2023-05-21T13:24:06;4.30;;;2.60;;
56116;SDS011;41989;45.356;20.392;2023-05-21T13:26:32;6.32;;;2.63;;
56116;SDS011;41989;45.356;20.392;2023-05-21T13:28:58;4.35;;;2.90;;
56116;SDS011;41989;45.356;20.392;2023-05-21T13:31:24;5.82;;;3.28;;
56116;SDS011;41989;45.356;20.392;2023-05-21T13:33:51;5.78;;;3.58;;
56116;SDS011;41989;45.356;20.392;2023-05-21T13:36:17;5.15;;;3.40;;
56116;SDS011;41989;45.356;20.392;2023-05-21T13:38:43;7.00;;;3.78;;
56116;SDS011;41989;45.356;20.392;2023-05-21T13:41:09;4.82;;;2.88;;
56116;SDS011;41989;45.356;20.392;2023-05-21T13:43:35;5.47;;;3.45;;
56116;SDS011;41989;45.356;20.392;2023-05-21T13:46:03;4.43;;;3.70;;
56116;SDS011;41989;45.356;20.392;2023-05-21T13:48:30;25.23;;;15.02;;
56116;SDS011;41989;45.356;20.392;2023-05-21T13:50:56;20.95;;;13.88;;
56116;SDS011;41989;45.356;20.392;2023-05-21T13:53:25;8.32;;;4.65;;
56116;SDS011;41989;45.356;20.392;2023-05-21T13:55:51;7.32;;;4.90;;
56116;SDS011;41989;45.356;20.392;2023-05-21T13:58:17;5.95;;;3.17;;
56116;SDS011;41989;45.356;20.392;2023-05-21T14:00:43;5.40;;;3.28;;
56116;SDS011;41989;45.356;20.392;2023-05-21T14:03:09;5.72;;;3.28;;
56116;SDS011;41989;45.356;20.392;2023-05-21T14:05:35;7.80;;;5.75;;
56116;SDS011;41989;45.356;20.392;2023-05-21T14:08:02;8.45;;;6.30;;
56116;SDS011;41989;45.356;20.392;2023-05-21T14:10:28;6.47;;;3.58;;
56116;SDS011;41989;45.356;20.392;2023-05-21T14:12:54;8.00;;;4.25;;
56116;SDS011;41989;45.356;20.392;2023-05-21T14:15:20;6.65;;;3.50;;
56116;SDS011;41989;45.356;20.392;2023-05-21T14:17:47;52.35;;;46.78;;
56116;SDS011;41989;45.356;20.392;2023-05-21T14:20:13;6.80;;;4.00;;
56116;SDS011;41989;45.356;20.392;2023-05-21T14:22:39;8.52;;;4.05;;
56116;SDS011;41989;45.356;20.392;2023-05-21T14:25:05;7.97;;;4.07;;
56116;SDS011;41989;45.356;20.392;2023-05-21T14:27:31;5.75;;;4.13;;
56116;SDS011;41989;45.356;20.392;2023-05-21T14:29:58;7.72;;;3.92;;
56116;SDS011;41989;45.356;20.392;2023-05-21T14:32:24;6.68;;;3.38;;
56116;SDS011;41989;45.356;20.392;2023-05-21T14:34:52;38.70;;;5.13;;
56116;SDS011;41989;45.356;20.392;2023-05-21T14:37:21;7.00;;;3.95;;
56116;SDS011;41989;45.356;20.392;2023-05-21T14:39:47;9.70;;;4.05;;
56116;SDS011;41989;45.356;20.392;2023-05-21T14:42:13;8.95;;;4.47;;
56116;SDS011;41989;45.356;20.392;2023-05-21T14:44:39;10.15;;;4.25;;
56116;SDS011;41989;45.356;20.392;2023-05-21T14:47:14;7.25;;;3.80;;
56116;SDS011;41989;45.356;20.392;2023-05-21T14:49:40;9.63;;;4.43;;
56116;SDS011;41989;45.356;20.392;2023-05-21T14:52:06;8.32;;;4.00;;
56116;SDS011;41989;45.356;20.392;2023-05-21T14:54:35;8.43;;;4.18;;
56116;SDS011;41989;45.356;20.392;2023-05-21T14:57:02;12.02;;;4.47;;